createdAt,value
2023-01-25T00:01:18.748Z,78.40
2023-01-25T00:03:46.765Z,78.18
2023-01-25T00:06:16.045Z,78.07
2023-01-25T00:08:43.889Z,78.50
2023-01-25T00:11:11.840Z,77.66
2023-01-25T00:13:39.779Z,78.26
2023-01-25T00:16:08.890Z,77.64
2023-01-25T00:18:36.836Z,77.74
2023-01-25T00:21:13.339Z,77.34
2023-01-25T00:23:42.614Z,77.46
2023-01-25T00:26:10.532Z,77.72
2023-01-25T00:28:39.184Z,77.41
2023-01-25T00:31:08.604Z,78.03
2023-01-25T00:33:44.935Z,77.43
2023-01-25T00:36:41.758Z,77.80
2023-01-25T00:39:14.582Z,76.95
2023-01-25T00:41:44.513Z,77.26
2023-01-25T00:44:12.384Z,77.52
2023-01-25T00:46:40.488Z,78.04
2023-01-25T00:49:08.697Z,78.59
2023-01-25T00:51:36.552Z,77.96
2023-01-25T00:54:04.690Z,77.95
2023-01-25T00:56:34.389Z,77.91
2023-01-25T00:59:02.275Z,78.99
2023-01-25T01:01:30.149Z,78.54
2023-01-25T01:03:58.064Z,78.73
2023-01-25T01:06:25.935Z,78.32
2023-01-25T01:08:54.083Z,78.45
2023-01-25T01:11:24.414Z,79.15
2023-01-25T01:13:53.945Z,79.33
2023-01-25T01:16:21.824Z,78.66
2023-01-25T01:18:50.900Z,78.67
2023-01-25T01:21:19.722Z,79.31
2023-01-25T01:23:47.719Z,79.19
2023-01-25T01:26:19.454Z,79.32
2023-01-25T01:28:47.852Z,79.02
2023-01-25T01:31:19.047Z,78.19
2023-01-25T01:33:59.371Z,78.01
2023-01-25T01:36:29.665Z,78.10
2023-01-25T01:38:59.014Z,78.08
2023-01-25T01:41:26.997Z,77.86
2023-01-25T01:43:55.307Z,78.08
2023-01-25T01:46:28.677Z,77.82
2023-01-25T01:49:02.592Z,77.22
2023-01-25T01:51:42.181Z,76.83
2023-01-25T01:54:18.583Z,76.78
2023-01-25T01:56:53.195Z,76.99
2023-01-25T01:59:23.218Z,76.66
2023-01-25T02:01:52.679Z,77.13
2023-01-25T02:04:23.461Z,76.54
2023-01-25T02:06:55.625Z,76.95
2023-01-25T02:09:26.061Z,76.70
2023-01-25T02:11:54.939Z,76.63
2023-01-25T02:14:24.342Z,77.34
2023-01-25T02:16:53.691Z,76.71
2023-01-25T02:19:34.532Z,77.29
2023-01-25T02:22:07.742Z,77.58
2023-01-25T02:24:36.325Z,77.40
2023-01-25T02:27:06.449Z,77.49
2023-01-25T02:29:35.690Z,77.61
2023-01-25T02:32:05.261Z,77.39
2023-01-25T02:34:33.284Z,77.42
2023-01-25T02:37:01.393Z,77.26
2023-01-25T02:39:30.428Z,77.54
2023-01-25T02:41:58.249Z,77.95
2023-01-25T02:44:33.537Z,78.09
2023-01-25T02:47:04.581Z,78.15
2023-01-25T02:49:35.508Z,78.73
2023-01-25T02:52:04.718Z,79.09
2023-01-25T02:54:33.075Z,78.80
2023-01-25T02:57:02.487Z,79.37
2023-01-25T02:59:39.432Z,80.04
2023-01-25T03:02:08.179Z,79.72
2023-01-25T03:04:36.575Z,79.94
2023-01-25T03:07:04.541Z,80.10
2023-01-25T03:09:32.593Z,80.53
2023-01-25T03:12:00.553Z,80.61
2023-01-25T03:14:28.557Z,80.13
2023-01-25T03:16:57.757Z,80.34
2023-01-25T03:19:26.825Z,80.02
2023-01-25T03:21:54.797Z,80.66
2023-01-25T03:24:24.569Z,80.27
2023-01-25T03:27:10.205Z,80.05
2023-01-25T03:29:58.518Z,80.36
2023-01-25T03:32:32.661Z,79.80
2023-01-25T03:35:07.186Z,80.05
2023-01-25T03:37:35.369Z,80.09
2023-01-25T03:40:05.659Z,79.95
2023-01-25T03:42:34.204Z,80.03
2023-01-25T03:45:02.228Z,80.36
2023-01-25T03:47:32.476Z,79.96
2023-01-25T03:50:00.471Z,79.70
2023-01-25T03:52:45.588Z,80.12
2023-01-25T03:55:13.622Z,80.70
2023-01-25T03:57:43.560Z,80.43
2023-01-25T04:00:13.007Z,80.20
2023-01-25T04:02:50.190Z,80.00
2023-01-25T04:05:20.212Z,80.11
2023-01-25T04:07:48.619Z,79.76
2023-01-25T04:10:21.221Z,79.11
2023-01-25T04:12:50.030Z,78.50
2023-01-25T04:15:18.033Z,78.26
2023-01-25T04:17:46.219Z,78.77
2023-01-25T04:20:25.294Z,78.97
2023-01-25T04:22:55.373Z,78.88
2023-01-25T04:25:28.114Z,78.61
2023-01-25T04:27:56.058Z,78.02
2023-01-25T04:30:25.652Z,77.84
2023-01-25T04:32:55.282Z,78.41
2023-01-25T04:35:31.929Z,78.28
2023-01-25T04:38:02.114Z,78.36
2023-01-25T04:40:37.126Z,77.61
2023-01-25T04:43:07.383Z,77.98
2023-01-25T04:45:36.526Z,78.29
2023-01-25T04:48:10.692Z,78.36
2023-01-25T04:50:45.277Z,77.98
2023-01-25T04:53:14.567Z,77.72
2023-01-25T04:55:46.311Z,78.00
2023-01-25T04:58:15.194Z,77.46
2023-01-25T05:00:44.110Z,77.62
2023-01-25T05:03:12.874Z,77.86
2023-01-25T05:05:47.566Z,76.56
2023-01-25T05:08:19.090Z,77.28
2023-01-25T05:10:47.473Z,77.33
2023-01-25T05:13:38.543Z,77.77
2023-01-25T05:16:16.519Z,77.65
2023-01-25T05:18:48.903Z,77.83
2023-01-25T05:21:41.406Z,78.32
2023-01-25T05:24:10.527Z,78.47
2023-01-25T05:27:11.154Z,77.81
2023-01-25T05:29:54.251Z,78.35
2023-01-25T05:32:28.002Z,77.49
2023-01-25T05:34:58.311Z,77.48
2023-01-25T05:37:29.413Z,77.28
2023-01-25T05:40:05.388Z,77.21
2023-01-25T05:42:37.601Z,77.35
2023-01-25T05:45:10.733Z,76.87
2023-01-25T05:47:43.436Z,76.94
2023-01-25T05:50:12.150Z,76.91
2023-01-25T05:52:53.651Z,77.29
2023-01-25T05:55:21.599Z,76.92
2023-01-25T05:57:51.533Z,76.14
2023-01-25T06:00:20.334Z,76.49
2023-01-25T06:02:48.389Z,76.60
2023-01-25T06:05:20.145Z,76.47
2023-01-25T06:07:48.115Z,76.10
2023-01-25T06:10:19.468Z,76.42
2023-01-25T06:12:50.532Z,76.25
2023-01-25T06:15:18.475Z,76.62
2023-01-25T06:17:46.319Z,76.60
2023-01-25T06:20:29.365Z,76.90
2023-01-25T06:23:06.250Z,76.50
2023-01-25T06:25:35.529Z,76.81
2023-01-25T06:28:03.359Z,76.77
2023-01-25T06:30:31.282Z,76.26
2023-01-25T06:32:59.402Z,76.41
2023-01-25T06:35:27.345Z,75.94
2023-01-25T06:37:56.521Z,76.55
2023-01-25T06:40:24.516Z,76.44
2023-01-25T06:42:53.718Z,76.91
2023-01-25T06:45:21.920Z,76.91
2023-01-25T06:47:50.235Z,76.68
2023-01-25T06:50:18.256Z,76.45
2023-01-25T06:52:53.109Z,76.66
2023-01-25T06:55:21.208Z,76.53
2023-01-25T06:57:49.506Z,76.42
2023-01-25T07:00:19.785Z,75.81
2023-01-25T07:02:47.782Z,75.58
2023-01-25T07:05:15.894Z,75.52
2023-01-25T07:07:46.092Z,75.51
2023-01-25T07:10:14.027Z,75.66
2023-01-25T07:12:41.974Z,76.15
2023-01-25T07:15:10.878Z,75.87
2023-01-25T07:17:40.285Z,76.22
2023-01-25T07:20:09.500Z,75.98
2023-01-25T07:22:37.398Z,75.45
2023-01-25T07:25:07.022Z,75.32
2023-01-25T07:27:35.422Z,75.62
2023-01-25T07:30:04.004Z,75.29
2023-01-25T07:32:32.116Z,75.34
2023-01-25T07:35:01.335Z,74.93
2023-01-25T07:37:29.335Z,75.37
2023-01-25T07:39:58.209Z,75.46
2023-01-25T07:42:26.403Z,75.54
2023-01-25T07:45:12.315Z,75.48
2023-01-25T07:47:40.507Z,75.09
2023-01-25T07:50:11.917Z,75.09
2023-01-25T07:52:40.113Z,75.11
2023-01-25T07:55:08.794Z,75.38
2023-01-25T07:57:36.862Z,74.95
2023-01-25T08:00:07.167Z,75.23
2023-01-25T08:02:40.330Z,75.14
2023-01-25T08:05:11.452Z,75.28
2023-01-25T08:07:39.519Z,75.10
2023-01-25T08:10:08.128Z,75.14
2023-01-25T08:12:36.189Z,75.02
2023-01-25T08:15:04.711Z,75.29
2023-01-25T08:17:33.324Z,75.29
2023-01-25T08:20:01.684Z,75.12
2023-01-25T08:22:31.021Z,75.39
2023-01-25T08:25:01.144Z,75.69
2023-01-25T08:27:29.092Z,75.00
2023-01-25T08:29:57.037Z,75.41
2023-01-25T08:32:24.875Z,75.83
2023-01-25T08:34:52.791Z,75.66
2023-01-25T08:37:20.608Z,75.21
2023-01-25T08:39:50.106Z,75.28
2023-01-25T08:42:17.982Z,75.47
2023-01-25T08:44:45.888Z,75.39
2023-01-25T08:47:13.762Z,75.66
2023-01-25T08:49:41.943Z,76.10
2023-01-25T08:52:09.829Z,75.96
2023-01-25T08:54:37.681Z,76.24
2023-01-25T08:57:06.884Z,76.17
2023-01-25T08:59:34.721Z,76.46
2023-01-25T09:02:02.648Z,75.72
2023-01-25T09:04:30.596Z,75.68
2023-01-25T09:06:58.658Z,76.08
2023-01-25T09:09:26.642Z,76.75
2023-01-25T09:11:54.532Z,76.27
2023-01-25T09:14:24.023Z,76.06
2023-01-25T09:16:51.976Z,76.22
2023-01-25T09:19:19.874Z,76.25
2023-01-25T09:21:48.320Z,76.41
2023-01-25T09:24:16.201Z,75.62
2023-01-25T09:26:50.065Z,76.31
2023-01-25T09:29:26.356Z,75.68
2023-01-25T09:31:54.263Z,76.10
2023-01-25T09:34:42.646Z,76.13
2023-01-25T09:37:10.525Z,76.03
2023-01-25T09:39:38.394Z,76.18
2023-01-25T09:42:32.823Z,75.86
2023-01-25T09:45:22.542Z,75.95
2023-01-25T09:47:59.193Z,76.06
2023-01-25T09:50:36.545Z,75.98
2023-01-25T09:53:21.583Z,76.40
2023-01-25T09:55:55.539Z,75.92
2023-01-25T09:58:28.456Z,75.38
2023-01-25T10:01:13.883Z,76.00
2023-01-25T10:03:50.865Z,75.92
2023-01-25T10:06:23.350Z,75.80
2023-01-25T10:09:01.009Z,75.76
2023-01-25T10:11:31.369Z,76.04
2023-01-25T10:14:00.570Z,75.62
2023-01-25T10:16:34.855Z,75.02
2023-01-25T10:19:15.308Z,75.31
2023-01-25T10:21:46.515Z,75.75
2023-01-25T10:24:32.105Z,75.83
2023-01-25T10:27:04.441Z,75.48
2023-01-25T10:29:34.134Z,75.41
2023-01-25T10:32:15.635Z,75.59
2023-01-25T10:34:56.222Z,75.81
2023-01-25T10:37:29.481Z,75.77
2023-01-25T10:40:02.119Z,76.18
2023-01-25T10:42:40.698Z,75.98
2023-01-25T10:45:13.102Z,74.55
2023-01-25T10:47:45.039Z,75.13
2023-01-25T10:50:46.556Z,74.64
2023-01-25T10:53:26.622Z,74.44
2023-01-25T10:56:22.159Z,74.32
2023-01-25T10:58:54.380Z,75.08
2023-01-25T11:01:29.851Z,74.64
2023-01-25T11:04:00.416Z,74.93
2023-01-25T11:06:36.806Z,75.23
2023-01-25T11:09:32.753Z,74.91
2023-01-25T11:12:02.704Z,75.11
2023-01-25T11:14:32.171Z,75.26
2023-01-25T11:17:02.085Z,75.23
2023-01-25T11:19:34.371Z,75.10
2023-01-25T11:22:05.387Z,75.07
2023-01-25T11:24:36.550Z,75.05
2023-01-25T11:27:18.981Z,74.90
2023-01-25T11:30:09.692Z,75.48
2023-01-25T11:32:39.783Z,75.94
2023-01-25T11:35:14.193Z,75.66
2023-01-25T11:38:03.349Z,75.72
2023-01-25T11:40:39.068Z,75.17
2023-01-25T11:43:25.347Z,74.73
2023-01-25T11:46:07.674Z,75.50
2023-01-25T11:48:51.611Z,75.48
2023-01-25T11:51:27.307Z,75.25
2023-01-25T11:54:06.527Z,75.32
2023-01-25T11:56:50.261Z,75.32
2023-01-25T11:59:45.236Z,74.63
2023-01-25T12:02:33.864Z,74.31
2023-01-25T12:05:21.796Z,74.52
2023-01-25T12:08:02.229Z,74.84
2023-01-25T12:10:41.164Z,74.87
2023-01-25T12:13:18.720Z,74.73
2023-01-25T12:16:13.623Z,74.71
2023-01-25T12:19:04.623Z,75.83
2023-01-25T12:21:46.001Z,75.95
2023-01-25T12:24:27.781Z,76.00
2023-01-25T12:27:06.511Z,75.28
2023-01-25T12:29:40.654Z,75.80
2023-01-25T12:32:13.785Z,75.69
2023-01-25T12:34:48.609Z,75.43
2023-01-25T12:37:20.095Z,75.08
2023-01-25T12:39:52.538Z,75.46
2023-01-25T12:42:25.954Z,75.63
2023-01-25T12:45:00.534Z,74.93
2023-01-25T12:47:36.074Z,75.23
2023-01-25T12:50:15.508Z,75.79
2023-01-25T12:52:49.024Z,75.53
2023-01-25T12:55:18.706Z,76.06
2023-01-25T12:57:57.618Z,75.94
2023-01-25T13:00:36.170Z,76.35
2023-01-25T13:03:17.637Z,76.35
2023-01-25T13:05:53.038Z,76.53
2023-01-25T13:08:32.954Z,75.99
2023-01-25T13:11:10.684Z,76.58
2023-01-25T13:13:38.787Z,76.45
2023-01-25T13:16:37.636Z,77.01
2023-01-25T13:19:05.682Z,77.31
2023-01-25T13:21:42.407Z,77.36
2023-01-25T13:24:17.267Z,77.40
2023-01-25T13:26:50.835Z,76.83
2023-01-25T13:29:49.576Z,77.48
2023-01-25T13:32:56.467Z,77.40
2023-01-25T13:35:35.820Z,77.42
2023-01-25T13:38:07.459Z,77.68
2023-01-25T13:40:37.352Z,77.79
2023-01-25T13:43:17.441Z,77.47
2023-01-25T13:45:49.034Z,77.93
2023-01-25T13:48:21.456Z,77.69
2023-01-25T13:50:52.290Z,77.56
2023-01-25T13:53:23.373Z,78.10
2023-01-25T13:55:53.724Z,78.23
2023-01-25T13:58:23.326Z,78.19
2023-01-25T14:00:54.105Z,77.98
2023-01-25T14:03:27.628Z,78.42
2023-01-25T14:05:57.701Z,78.18
2023-01-25T14:08:27.411Z,78.34
2023-01-25T14:10:56.110Z,79.04
2023-01-25T14:13:23.937Z,79.44
2023-01-25T14:15:57.409Z,79.43
2023-01-25T14:18:31.984Z,79.54
2023-01-25T14:21:18.883Z,79.83
2023-01-25T14:23:48.532Z,80.37
2023-01-25T14:26:20.688Z,79.69
2023-01-25T14:28:59.526Z,80.25
2023-01-25T14:31:34.323Z,80.16
2023-01-25T14:34:06.141Z,79.81
2023-01-25T14:36:35.240Z,79.39
2023-01-25T14:39:04.942Z,80.02
2023-01-25T14:41:35.362Z,79.97
2023-01-25T14:44:05.390Z,79.84
2023-01-25T14:46:34.973Z,79.51
2023-01-25T14:49:29.089Z,79.65
2023-01-25T14:52:03.264Z,79.89
2023-01-25T14:54:33.898Z,80.25
2023-01-25T14:57:03.883Z,80.27
2023-01-25T14:59:36.800Z,80.24
2023-01-25T15:02:17.772Z,80.16
2023-01-25T15:04:55.609Z,80.25
2023-01-25T15:07:43.038Z,80.37
2023-01-25T15:10:20.154Z,80.21
2023-01-25T15:13:07.641Z,80.16
2023-01-25T15:15:51.881Z,80.54
2023-01-25T15:18:44.251Z,80.39
2023-01-25T15:21:15.469Z,80.69
2023-01-25T15:23:45.473Z,80.75
2023-01-25T15:26:18.967Z,80.75
2023-01-25T15:28:47.693Z,80.38
2023-01-25T15:31:20.039Z,80.31
2023-01-25T15:33:48.390Z,80.47
2023-01-25T15:36:18.603Z,80.19
2023-01-25T15:38:46.621Z,80.80
2023-01-25T15:41:15.101Z,80.48
2023-01-25T15:43:43.128Z,80.56
2023-01-25T15:46:17.685Z,80.38
2023-01-25T15:48:47.275Z,80.10
2023-01-25T15:51:15.156Z,80.39
2023-01-25T15:53:44.512Z,80.28
2023-01-25T15:56:17.076Z,80.36
2023-01-25T15:58:48.206Z,80.38
2023-01-25T16:01:16.425Z,80.94
2023-01-25T16:03:44.303Z,80.86
2023-01-25T16:06:27.056Z,81.24
2023-01-25T16:08:58.639Z,80.94
2023-01-25T16:11:26.727Z,80.94
2023-01-25T16:13:54.746Z,81.02
2023-01-25T16:16:24.917Z,80.83
2023-01-25T16:18:52.933Z,81.02
2023-01-25T16:21:20.797Z,80.70
2023-01-25T16:23:48.725Z,80.60
2023-01-25T16:26:20.937Z,81.10
2023-01-25T16:28:48.849Z,80.88
2023-01-25T16:31:31.375Z,80.63
2023-01-25T16:34:00.928Z,80.33
2023-01-25T16:36:29.594Z,80.65
2023-01-25T16:38:57.492Z,80.80
2023-01-25T16:41:26.729Z,80.86
2023-01-25T16:43:54.572Z,81.21
2023-01-25T16:46:24.590Z,81.04
2023-01-25T16:48:53.565Z,81.29
2023-01-25T16:51:24.647Z,81.18
2023-01-25T16:53:56.217Z,81.02
2023-01-25T16:56:27.035Z,81.46
2023-01-25T16:58:56.413Z,81.21
2023-01-25T17:01:26.208Z,81.34
2023-01-25T17:03:55.784Z,81.33
2023-01-25T17:06:26.997Z,81.31
2023-01-25T17:08:58.864Z,80.84
2023-01-25T17:11:29.308Z,81.16
2023-01-25T17:13:59.227Z,81.18
2023-01-25T17:16:29.087Z,80.97
2023-01-25T17:19:00.320Z,81.03
2023-01-25T17:21:28.679Z,80.77
2023-01-25T17:23:58.346Z,81.11
2023-01-25T17:26:28.382Z,80.97
2023-01-25T17:28:56.804Z,80.93
2023-01-25T17:31:27.336Z,81.05
2023-01-25T17:33:56.428Z,80.86
2023-01-25T17:36:24.335Z,80.51
2023-01-25T17:38:54.002Z,80.93
2023-01-25T17:41:22.016Z,80.71
2023-01-25T17:43:53.517Z,80.68
2023-01-25T17:46:25.410Z,80.45
2023-01-25T17:48:54.272Z,80.85
2023-01-25T17:51:24.822Z,80.55
2023-01-25T17:53:53.105Z,80.83
2023-01-25T17:56:21.422Z,81.22
2023-01-25T17:58:49.398Z,80.87
2023-01-25T18:01:20.777Z,80.74
2023-01-25T18:03:50.270Z,81.28
2023-01-25T18:06:21.048Z,80.72
2023-01-25T18:08:50.675Z,81.11
2023-01-25T18:11:20.731Z,81.12
2023-01-25T18:13:50.713Z,81.07
2023-01-25T18:16:22.214Z,81.54
2023-01-25T18:18:51.570Z,81.02
2023-01-25T18:21:24.104Z,81.58
2023-01-25T18:23:54.046Z,80.99
2023-01-25T18:26:23.762Z,81.32
2023-01-25T18:28:54.202Z,81.31
2023-01-25T18:31:23.421Z,81.05
2023-01-25T18:33:51.408Z,80.88
2023-01-25T18:36:20.158Z,80.87
2023-01-25T18:38:48.151Z,80.80
2023-01-25T18:41:16.257Z,80.33
2023-01-25T18:43:44.184Z,80.52
2023-01-25T18:46:12.823Z,80.97
2023-01-25T18:48:43.641Z,80.72
2023-01-25T18:51:13.197Z,81.07
2023-01-25T18:53:43.511Z,80.82
2023-01-25T18:56:14.106Z,81.04
2023-01-25T18:58:42.019Z,80.60
2023-01-25T19:01:12.683Z,80.93
2023-01-25T19:03:42.275Z,81.52
2023-01-25T19:06:10.522Z,80.71
2023-01-25T19:08:41.529Z,80.83
2023-01-25T19:11:11.383Z,81.02
2023-01-25T19:13:40.479Z,81.41
2023-01-25T19:16:11.689Z,81.56
2023-01-25T19:18:46.328Z,81.71
2023-01-25T19:21:16.207Z,81.28
2023-01-25T19:23:44.535Z,81.11
2023-01-25T19:26:15.906Z,81.57
2023-01-25T19:28:44.840Z,81.34
2023-01-25T19:31:14.431Z,81.31
2023-01-25T19:33:44.513Z,81.67
2023-01-25T19:36:16.759Z,81.21
2023-01-25T19:38:46.372Z,81.49
2023-01-25T19:41:15.665Z,81.46
2023-01-25T19:43:43.914Z,81.72
2023-01-25T19:46:13.999Z,81.52
2023-01-25T19:48:44.860Z,81.48
2023-01-25T19:51:15.157Z,81.36
2023-01-25T19:53:46.560Z,81.91
2023-01-25T19:56:16.384Z,81.85
2023-01-25T19:58:45.376Z,82.19
2023-01-25T20:01:16.176Z,81.81
2023-01-25T20:03:45.828Z,81.67
2023-01-25T20:06:15.031Z,81.74
2023-01-25T20:08:44.365Z,81.77
2023-01-25T20:11:13.788Z,81.91
2023-01-25T20:13:42.129Z,81.38
2023-01-25T20:16:11.589Z,81.21
2023-01-25T20:18:39.663Z,81.55
2023-01-25T20:21:12.238Z,81.35
2023-01-25T20:23:41.732Z,81.26
2023-01-25T20:26:13.584Z,81.41
2023-01-25T20:28:43.089Z,81.57
2023-01-25T20:31:20.412Z,81.78
2023-01-25T20:33:48.861Z,81.68
2023-01-25T20:36:18.372Z,81.49
2023-01-25T20:38:47.291Z,81.50
2023-01-25T20:41:17.331Z,81.52
2023-01-25T20:43:49.152Z,81.39
2023-01-25T20:46:17.656Z,81.82
2023-01-25T20:48:45.894Z,81.25
2023-01-25T20:51:17.092Z,81.54
2023-01-25T20:53:46.916Z,81.40
2023-01-25T20:56:15.476Z,81.65
2023-01-25T20:58:45.904Z,81.81
2023-01-25T21:01:15.395Z,81.55
2023-01-25T21:03:43.414Z,81.47
2023-01-25T21:06:12.171Z,81.57
2023-01-25T21:08:40.552Z,81.93
2023-01-25T21:11:11.480Z,82.02
2023-01-25T21:13:39.398Z,81.49
2023-01-25T21:16:10.103Z,81.36
2023-01-25T21:18:39.893Z,82.15
2023-01-25T21:21:09.998Z,81.29
2023-01-25T21:23:40.238Z,81.71
2023-01-25T21:26:14.398Z,81.53
2023-01-25T21:28:42.360Z,81.59
2023-01-25T21:31:11.818Z,82.30
2023-01-25T21:33:40.671Z,81.58
2023-01-25T21:36:11.552Z,81.56
2023-01-25T21:38:40.509Z,82.17
2023-01-25T21:41:12.680Z,81.55
2023-01-25T21:43:58.437Z,81.22
2023-01-25T21:46:27.764Z,81.31
2023-01-25T21:49:13.785Z,81.33
2023-01-25T21:51:49.420Z,81.56
2023-01-25T21:54:18.387Z,81.62
2023-01-25T21:56:48.915Z,81.67
2023-01-25T21:59:17.042Z,81.91
2023-01-25T22:01:45.798Z,81.82
2023-01-25T22:04:15.083Z,81.92
2023-01-25T22:06:43.717Z,81.77
2023-01-25T22:09:13.888Z,81.55
2023-01-25T22:11:42.058Z,82.30
2023-01-25T22:14:11.266Z,81.64
2023-01-25T22:16:39.161Z,82.16
2023-01-25T22:19:07.441Z,82.03
2023-01-25T22:21:35.576Z,81.96
2023-01-25T22:24:05.908Z,81.84
2023-01-25T22:26:43.844Z,81.64
2023-01-25T22:29:13.857Z,82.27
2023-01-25T22:31:41.905Z,81.69
2023-01-25T22:34:11.012Z,81.92
2023-01-25T22:36:39.184Z,81.65
2023-01-25T22:39:07.201Z,81.27
2023-01-25T22:41:38.496Z,81.60
2023-01-25T22:44:06.551Z,81.53
2023-01-25T22:46:35.777Z,81.52
2023-01-25T22:49:05.789Z,81.32
2023-01-25T22:51:33.728Z,81.43
2023-01-25T22:54:01.782Z,81.30
2023-01-25T22:56:31.725Z,81.56
2023-01-25T22:59:00.795Z,81.38
2023-01-25T23:01:30.024Z,81.70
2023-01-25T23:04:00.017Z,81.25
2023-01-25T23:06:29.470Z,81.07
2023-01-25T23:08:59.732Z,81.27
2023-01-25T23:11:35.672Z,81.62
2023-01-25T23:14:22.235Z,81.09
2023-01-25T23:16:50.112Z,81.24
2023-01-25T23:19:18.453Z,81.75
2023-01-25T23:21:46.380Z,81.81
2023-01-25T23:24:14.481Z,81.54
2023-01-25T23:26:46.119Z,81.31
2023-01-25T23:29:14.594Z,82.03
2023-01-25T23:31:43.055Z,81.80
2023-01-25T23:34:12.520Z,81.53
2023-01-25T23:36:42.408Z,81.85
2023-01-25T23:39:12.479Z,81.46
2023-01-25T23:41:40.739Z,82.11
2023-01-25T23:44:09.117Z,82.24
2023-01-25T23:46:37.491Z,81.75
2023-01-25T23:49:05.487Z,81.68
2023-01-25T23:51:33.299Z,82.09
2023-01-25T23:54:02.572Z,81.71
2023-01-25T23:56:30.423Z,81.54
2023-01-25T23:58:58.506Z,82.01
